createdAt,value
2023-05-05T00:00:20.992Z,341.35
2023-05-05T00:01:05.795Z,338.55
2023-05-05T00:01:50.762Z,351.61
2023-05-05T00:02:35.916Z,334.82
2023-05-05T00:03:20.940Z,355.34
2023-05-05T00:04:06.107Z,343.21
2023-05-05T00:04:51.597Z,357.20
2023-05-05T00:05:37.029Z,343.21
2023-05-05T00:06:21.201Z,354.40
2023-05-05T00:07:06.401Z,343.21
2023-05-05T00:07:51.312Z,361.87
2023-05-05T00:08:36.305Z,353.47
2023-05-05T00:09:21.585Z,352.54
2023-05-05T00:10:07.192Z,353.47
2023-05-05T00:10:51.761Z,344.15
2023-05-05T00:11:36.693Z,347.88
2023-05-05T00:12:22.371Z,346.94
2023-05-05T00:13:07.069Z,346.94
2023-05-05T00:13:51.799Z,351.61
2023-05-05T00:14:36.714Z,360.00
2023-05-05T00:15:21.868Z,332.95
2023-05-05T00:16:07.051Z,296.58
2023-05-05T00:16:52.051Z,113.78
2023-05-05T00:17:37.247Z,166.94
2023-05-05T00:18:22.433Z,345.08
2023-05-05T00:19:07.157Z,343.21
2023-05-05T00:19:52.320Z,341.11
2023-05-05T00:20:37.384Z,332.76
2023-05-05T00:21:23.039Z,337.40
2023-05-05T00:22:07.524Z,324.42
2023-05-05T00:22:52.444Z,329.06
2023-05-05T00:23:37.695Z,334.82
2023-05-05T00:24:22.567Z,154.82
2023-05-05T00:25:09.068Z,311.44
2023-05-05T00:25:54.557Z,150.16
2023-05-05T00:26:39.109Z,322.69
2023-05-05T00:27:22.888Z,178.76
2023-05-05T00:28:08.247Z,373.55
2023-05-05T00:28:53.326Z,372.62
2023-05-05T00:29:38.435Z,356.86
2023-05-05T00:30:22.913Z,346.94
2023-05-05T00:31:08.333Z,370.26
2023-05-05T00:31:52.925Z,357.20
2023-05-05T00:32:38.261Z,361.87
2023-05-05T00:33:23.213Z,356.86
2023-05-05T00:34:08.079Z,352.23
2023-05-05T00:34:53.077Z,341.11
2023-05-05T00:35:38.739Z,355.94
2023-05-05T00:36:23.423Z,359.64
2023-05-05T00:37:08.335Z,356.86
2023-05-05T00:37:53.180Z,360.57
2023-05-05T00:38:38.374Z,359.64
2023-05-05T00:39:23.274Z,354.08
2023-05-05T00:40:08.272Z,352.23
2023-05-05T00:40:53.561Z,348.52
2023-05-05T00:41:38.957Z,342.03
2023-05-05T00:42:23.858Z,345.08
2023-05-05T00:43:08.365Z,345.08
2023-05-05T00:43:54.391Z,355.34
2023-05-05T00:44:39.084Z,351.61
2023-05-05T00:45:25.023Z,349.74
2023-05-05T00:46:08.624Z,324.56
2023-05-05T00:46:53.946Z,160.41
2023-05-05T00:47:39.190Z,314.22
2023-05-05T00:48:23.852Z,158.50
2023-05-05T00:49:08.529Z,314.22
2023-05-05T00:49:54.168Z,318.86
2023-05-05T00:50:39.016Z,317.01
2023-05-05T00:51:24.016Z,154.80
2023-05-05T00:52:09.441Z,336.68
2023-05-05T00:52:55.097Z,331.09
2023-05-05T00:53:39.324Z,327.36
2023-05-05T00:54:24.010Z,110.98
2023-05-05T00:55:09.706Z,160.41
2023-05-05T00:55:54.504Z,327.36
2023-05-05T00:56:40.042Z,318.96
2023-05-05T00:57:24.893Z,320.71
2023-05-05T00:58:09.380Z,329.98
2023-05-05T00:58:54.715Z,320.71
2023-05-05T00:59:39.857Z,321.64
2023-05-05T01:00:25.046Z,159.43
2023-05-05T01:01:10.109Z,322.57
2023-05-05T01:01:54.920Z,318.86
2023-05-05T01:02:40.583Z,326.27
2023-05-05T01:03:25.581Z,335.54
2023-05-05T01:04:10.659Z,334.62
2023-05-05T01:04:55.684Z,328.13
2023-05-05T01:05:40.422Z,339.25
2023-05-05T01:06:25.417Z,337.40
2023-05-05T01:07:11.958Z,355.94
2023-05-05T01:07:55.335Z,361.50
2023-05-05T01:08:40.489Z,363.35
2023-05-05T01:09:25.670Z,356.86
2023-05-05T01:10:19.595Z,353.16
2023-05-05T01:10:55.652Z,356.86
2023-05-05T01:11:40.763Z,361.50
2023-05-05T01:12:25.377Z,349.45
2023-05-05T01:13:10.565Z,361.50
2023-05-05T01:13:55.700Z,369.84
2023-05-05T01:14:40.728Z,351.30
2023-05-05T01:15:26.008Z,333.69
2023-05-05T01:16:10.616Z,330.91
2023-05-05T01:16:56.008Z,334.62
2023-05-05T01:17:41.208Z,341.11
2023-05-05T01:18:26.152Z,344.81
2023-05-05T01:19:11.214Z,335.54
2023-05-05T01:19:56.221Z,346.67
2023-05-05T01:20:40.953Z,339.25
2023-05-05T01:21:26.249Z,349.45
2023-05-05T01:22:11.310Z,355.01
2023-05-05T01:22:56.482Z,352.23
2023-05-05T01:23:41.713Z,354.08
2023-05-05T01:24:26.873Z,336.47
2023-05-05T01:25:12.397Z,344.81
2023-05-05T01:25:56.994Z,340.18
2023-05-05T01:26:41.631Z,354.08
2023-05-05T01:27:27.127Z,361.50
2023-05-05T01:28:12.208Z,352.23
2023-05-05T01:28:56.809Z,344.73
2023-05-05T01:29:42.314Z,343.82
2023-05-05T01:30:27.463Z,333.76
2023-05-05T01:31:11.781Z,344.73
2023-05-05T01:31:57.191Z,351.13
2023-05-05T01:32:42.065Z,342.90
2023-05-05T01:33:27.181Z,347.47
2023-05-05T01:34:11.989Z,351.13
2023-05-05T01:34:57.037Z,341.99
2023-05-05T01:35:42.070Z,345.65
2023-05-05T01:36:27.461Z,349.30
2023-05-05T01:37:12.385Z,345.65
2023-05-05T01:37:57.761Z,352.96
2023-05-05T01:38:42.840Z,351.13
2023-05-05T01:39:28.094Z,353.88
2023-05-05T01:40:12.566Z,351.13
2023-05-05T01:40:57.905Z,349.30
2023-05-05T01:41:42.653Z,343.82
2023-05-05T01:42:27.715Z,341.99
2023-05-05T01:43:12.574Z,342.90
2023-05-05T01:43:58.545Z,174.65
2023-05-05T01:44:42.919Z,331.93
2023-05-05T01:45:28.021Z,327.36
2023-05-05T01:46:13.327Z,330.10
2023-05-05T01:46:58.555Z,333.76
2023-05-05T01:47:43.696Z,166.42
2023-05-05T01:48:27.748Z,337.42
2023-05-05T01:49:13.258Z,335.59
2023-05-05T01:49:58.986Z,332.84
2023-05-05T01:50:43.326Z,328.27
2023-05-05T01:51:28.312Z,332.84
2023-05-05T01:52:13.574Z,333.76
2023-05-05T01:52:58.703Z,336.50
2023-05-05T01:53:43.388Z,332.84
2023-05-05T01:54:28.537Z,338.33
2023-05-05T01:55:15.051Z,339.24
2023-05-05T01:55:58.910Z,325.53
2023-05-05T01:56:43.267Z,333.76
2023-05-05T01:57:29.078Z,337.42
2023-05-05T01:58:13.928Z,328.27
2023-05-05T01:58:58.982Z,336.50
2023-05-05T01:59:43.800Z,331.93
2023-05-05T02:00:28.883Z,336.50
2023-05-05T02:01:14.034Z,328.27
2023-05-05T02:01:58.984Z,331.93
2023-05-05T02:02:43.958Z,328.27
2023-05-05T02:03:29.274Z,329.19
2023-05-05T02:04:14.197Z,331.93
2023-05-05T02:04:59.107Z,329.19
2023-05-05T02:05:44.548Z,337.42
2023-05-05T02:06:29.339Z,327.36
2023-05-05T02:07:14.290Z,328.27
2023-05-05T02:07:59.424Z,341.99
2023-05-05T02:08:45.088Z,324.61
2023-05-05T02:09:29.360Z,328.27
2023-05-05T02:10:14.849Z,348.39
2023-05-05T02:10:59.655Z,347.47
2023-05-05T02:11:45.521Z,353.88
2023-05-05T02:12:29.586Z,340.16
2023-05-05T02:13:15.780Z,334.67
2023-05-05T02:14:00.068Z,343.82
2023-05-05T02:14:45.315Z,352.96
2023-05-05T02:15:30.339Z,341.07
2023-05-05T02:16:15.118Z,351.13
2023-05-05T02:17:00.316Z,351.13
2023-05-05T02:17:45.192Z,350.22
2023-05-05T02:18:30.042Z,344.73
2023-05-05T02:19:15.212Z,353.88
2023-05-05T02:20:00.247Z,359.36
2023-05-05T02:20:45.899Z,342.90
2023-05-05T02:21:30.695Z,353.88
2023-05-05T02:22:15.526Z,343.82
2023-05-05T02:23:00.246Z,353.88
2023-05-05T02:23:45.301Z,348.39
2023-05-05T02:24:30.834Z,352.96
2023-05-05T02:25:16.225Z,350.22
2023-05-05T02:26:00.387Z,351.13
2023-05-05T02:26:47.454Z,344.73
2023-05-05T02:27:30.787Z,351.24
2023-05-05T02:28:15.848Z,344.89
2023-05-05T02:29:01.040Z,346.70
2023-05-05T02:29:46.471Z,342.17
2023-05-05T02:30:34.410Z,339.46
2023-05-05T02:31:15.899Z,343.96
2023-05-05T02:32:01.029Z,336.76
2023-05-05T02:32:46.544Z,334.06
2023-05-05T02:33:31.163Z,341.97
2023-05-05T02:34:16.202Z,340.18
2023-05-05T02:35:01.673Z,330.36
2023-05-05T02:35:46.008Z,337.50
2023-05-05T02:36:31.816Z,339.29
2023-05-05T02:37:16.630Z,342.86
2023-05-05T02:38:01.599Z,331.25
2023-05-05T02:38:46.437Z,334.83
2023-05-05T02:39:31.828Z,341.08
2023-05-05T02:40:17.105Z,337.50
2023-05-05T02:41:01.977Z,341.97
2023-05-05T02:41:47.111Z,334.50
2023-05-05T02:42:32.644Z,345.12
2023-05-05T02:43:17.209Z,342.47
2023-05-05T02:44:02.146Z,338.04
2023-05-05T02:44:47.356Z,330.08
2023-05-05T02:45:32.568Z,323.88
2023-05-05T02:46:17.525Z,331.85
2023-05-05T02:47:02.473Z,183.44
2023-05-05T02:47:47.474Z,336.27
2023-05-05T02:48:32.728Z,332.73
2023-05-05T02:49:17.394Z,341.58
2023-05-05T02:50:02.261Z,335.39
2023-05-05T02:50:47.855Z,335.39
2023-05-05T02:51:33.031Z,336.27
2023-05-05T02:52:17.859Z,345.12
2023-05-05T02:53:03.364Z,326.11
2023-05-05T02:53:47.566Z,339.81
2023-05-05T02:54:33.034Z,335.39
2023-05-05T02:55:18.266Z,344.24
2023-05-05T02:56:03.141Z,324.58
2023-05-05T02:56:47.500Z,325.67
2023-05-05T02:57:34.040Z,336.73
2023-05-05T02:58:18.285Z,343.67
2023-05-05T02:59:03.357Z,354.09
2023-05-05T02:59:47.832Z,341.07
2023-05-05T03:00:33.305Z,350.62
2023-05-05T03:01:18.445Z,354.96
2023-05-05T03:02:03.737Z,349.75
2023-05-05T03:02:48.377Z,350.62
2023-05-05T03:03:33.830Z,341.78
2023-05-05T03:04:18.487Z,340.92
2023-05-05T03:05:03.405Z,332.39
2023-05-05T03:05:48.377Z,332.34
2023-05-05T03:06:34.276Z,339.34
2023-05-05T03:07:18.742Z,336.63
2023-05-05T03:08:03.645Z,337.49
2023-05-05T03:08:48.489Z,339.21
2023-05-05T03:09:34.396Z,335.77
2023-05-05T03:10:19.035Z,335.77
2023-05-05T03:11:04.176Z,330.62
2023-05-05T03:11:49.431Z,328.90
2023-05-05T03:12:34.355Z,325.83
2023-05-05T03:13:19.450Z,324.61
2023-05-05T03:14:04.433Z,331.48
2023-05-05T03:14:49.261Z,335.77
2023-05-05T03:15:34.621Z,334.91
2023-05-05T03:16:20.367Z,334.05
2023-05-05T03:17:04.409Z,340.06
2023-05-05T03:17:49.588Z,321.68
2023-05-05T03:18:35.122Z,334.05
2023-05-05T03:19:19.844Z,334.05
2023-05-05T03:20:05.509Z,335.77
2023-05-05T03:20:49.809Z,329.76
2023-05-05T03:21:34.723Z,328.04
2023-05-05T03:22:19.876Z,340.92
2023-05-05T03:23:04.985Z,327.48
2023-05-05T03:23:50.550Z,337.49
2023-05-05T03:24:35.377Z,335.77
2023-05-05T03:25:20.585Z,325.47
2023-05-05T03:26:05.163Z,330.62
2023-05-05T03:26:50.889Z,338.35
2023-05-05T03:27:35.529Z,328.66
2023-05-05T03:28:20.388Z,328.04
2023-05-05T03:29:05.462Z,328.04
2023-05-05T03:29:50.064Z,320.31
2023-05-05T03:30:36.065Z,329.76
2023-05-05T03:31:20.312Z,330.62
2023-05-05T03:32:05.874Z,325.47
2023-05-05T03:32:50.909Z,321.86
2023-05-05T03:33:35.760Z,306.09
2023-05-05T03:34:20.955Z,327.81
2023-05-05T03:35:06.478Z,329.51
2023-05-05T03:35:51.444Z,325.26
2023-05-05T03:36:36.056Z,322.71
2023-05-05T03:37:20.848Z,331.20
2023-05-05T03:38:05.675Z,321.01
2023-05-05T03:38:52.016Z,329.51
2023-05-05T03:39:36.258Z,329.51
2023-05-05T03:40:27.193Z,332.90
2023-05-05T03:41:06.118Z,332.90
2023-05-05T03:41:51.428Z,332.05
2023-05-05T03:42:36.444Z,328.66
2023-05-05T03:43:21.645Z,317.55
2023-05-05T03:44:06.458Z,331.48
2023-05-05T03:44:51.620Z,319.18
2023-05-05T03:45:36.496Z,335.77
2023-05-05T03:46:21.603Z,329.76
2023-05-05T03:47:06.377Z,335.77
2023-05-05T03:47:51.507Z,330.62
2023-05-05T03:48:37.651Z,324.17
2023-05-05T03:49:21.546Z,335.77
2023-05-05T03:50:07.615Z,341.78
2023-05-05T03:50:51.954Z,325.47
2023-05-05T03:51:37.120Z,342.64
2023-05-05T03:52:21.865Z,339.21
2023-05-05T03:53:06.712Z,335.77
2023-05-05T03:53:51.956Z,341.78
2023-05-05T03:54:37.573Z,340.92
2023-05-05T03:55:22.009Z,332.05
2023-05-05T03:56:06.978Z,332.05
2023-05-05T03:56:52.096Z,332.90
2023-05-05T03:57:37.258Z,324.41
2023-05-05T03:58:22.312Z,325.47
2023-05-05T03:59:07.474Z,328.90
2023-05-05T03:59:52.428Z,332.34
2023-05-05T04:00:37.790Z,339.21
2023-05-05T04:01:22.145Z,329.76
2023-05-05T04:02:07.439Z,331.48
2023-05-05T04:02:52.807Z,337.49
2023-05-05T04:03:37.844Z,337.49
2023-05-05T04:04:23.332Z,331.48
2023-05-05T04:05:07.730Z,328.90
2023-05-05T04:05:52.587Z,323.75
2023-05-05T04:06:38.067Z,326.32
2023-05-05T04:07:23.322Z,326.32
2023-05-05T04:08:08.216Z,332.34
2023-05-05T04:08:53.179Z,323.75
2023-05-05T04:09:38.408Z,325.47
2023-05-05T04:10:23.227Z,326.32
2023-05-05T04:11:08.280Z,315.05
2023-05-05T04:11:53.227Z,316.88
2023-05-05T04:12:38.433Z,310.87
2023-05-05T04:13:23.452Z,98.12
2023-05-05T04:14:08.207Z,332.34
2023-05-05T04:14:53.465Z,328.04
2023-05-05T04:15:38.582Z,334.05
2023-05-05T04:16:23.664Z,331.48
2023-05-05T04:17:09.318Z,340.92
2023-05-05T04:17:53.845Z,321.68
2023-05-05T04:18:38.751Z,342.64
2023-05-05T04:19:23.960Z,327.81
2023-05-05T04:20:09.561Z,326.11
2023-05-05T04:20:54.044Z,332.34
2023-05-05T04:21:39.434Z,336.63
2023-05-05T04:22:23.810Z,334.05
2023-05-05T04:23:08.993Z,323.28
2023-05-05T04:23:54.443Z,344.36
2023-05-05T04:24:39.292Z,343.09
2023-05-05T04:25:27.531Z,334.60
2023-05-05T04:26:09.482Z,328.66
2023-05-05T04:26:54.462Z,335.45
2023-05-05T04:27:39.618Z,328.66
2023-05-05T04:28:24.616Z,322.71
2023-05-05T04:29:09.324Z,326.11
2023-05-05T04:29:54.826Z,326.96
2023-05-05T04:30:39.930Z,324.41
2023-05-05T04:31:24.728Z,334.60
2023-05-05T04:32:09.553Z,326.11
2023-05-05T04:32:54.842Z,333.75
2023-05-05T04:33:40.362Z,321.01
2023-05-05T04:34:24.588Z,321.01
2023-05-05T04:35:09.907Z,326.96
2023-05-05T04:35:55.527Z,323.56
2023-05-05T04:36:40.304Z,329.51
2023-05-05T04:37:25.049Z,328.66
2023-05-05T04:38:10.111Z,322.71
2023-05-05T04:38:55.084Z,312.64
2023-05-05T04:39:40.471Z,307.43
2023-05-05T04:40:25.362Z,329.51
2023-05-05T04:41:10.666Z,317.62
2023-05-05T04:41:55.186Z,326.96
2023-05-05T04:42:41.040Z,309.97
2023-05-05T04:43:25.515Z,324.41
2023-05-05T04:44:10.352Z,324.41
2023-05-05T04:44:55.501Z,321.01
2023-05-05T04:45:40.468Z,326.96
2023-05-05T04:46:25.508Z,315.07
2023-05-05T04:47:11.997Z,320.16
2023-05-05T04:47:55.662Z,315.07
2023-05-05T04:48:41.506Z,322.71
2023-05-05T04:49:25.547Z,322.71
2023-05-05T04:50:10.896Z,312.52
2023-05-05T04:50:55.868Z,320.16
2023-05-05T04:51:41.128Z,320.16
2023-05-05T04:52:25.775Z,315.92
2023-05-05T04:53:11.135Z,321.01
2023-05-05T04:53:56.494Z,319.32
2023-05-05T04:54:41.145Z,319.32
2023-05-05T04:55:26.102Z,318.47
2023-05-05T04:56:11.411Z,313.37
2023-05-05T04:56:56.316Z,330.36
2023-05-05T04:57:41.477Z,331.20
2023-05-05T04:58:26.233Z,324.41
2023-05-05T04:59:11.329Z,322.71
2023-05-05T04:59:56.553Z,325.26
2023-05-05T05:00:41.816Z,319.32
2023-05-05T05:01:27.018Z,326.96
2023-05-05T05:02:12.074Z,330.36
2023-05-05T05:02:56.658Z,330.36
2023-05-05T05:03:41.760Z,313.46
2023-05-05T05:04:26.674Z,322.71
2023-05-05T05:05:14.141Z,326.96
2023-05-05T05:05:57.135Z,328.66
2023-05-05T05:06:42.159Z,325.26
2023-05-05T05:07:26.902Z,330.36
2023-05-05T05:08:11.897Z,321.01
2023-05-05T05:08:57.113Z,328.66
2023-05-05T05:09:42.173Z,329.51
2023-05-05T05:10:27.231Z,323.56
2023-05-05T05:11:12.381Z,329.02
2023-05-05T05:11:57.241Z,330.36
2023-05-05T05:12:42.349Z,307.27
2023-05-05T05:13:27.964Z,329.51
2023-05-05T05:14:12.771Z,323.15
2023-05-05T05:14:58.108Z,330.36
2023-05-05T05:15:43.489Z,326.96
2023-05-05T05:16:27.814Z,326.96
2023-05-05T05:17:12.628Z,323.56
2023-05-05T05:17:58.391Z,321.86
2023-05-05T05:18:42.855Z,331.20
2023-05-05T05:19:27.687Z,332.90
2023-05-05T05:20:12.855Z,329.51
2023-05-05T05:20:57.919Z,323.15
2023-05-05T05:21:43.045Z,325.67
2023-05-05T05:22:28.024Z,323.15
2023-05-05T05:23:13.188Z,326.51
2023-05-05T05:23:58.350Z,323.15
2023-05-05T05:24:43.152Z,319.79
2023-05-05T05:25:28.534Z,323.99
2023-05-05T05:26:13.216Z,322.31
2023-05-05T05:26:58.165Z,325.67
2023-05-05T05:27:43.524Z,328.19
2023-05-05T05:28:28.743Z,317.27
2023-05-05T05:29:13.549Z,315.60
2023-05-05T05:29:58.489Z,316.43
2023-05-05T05:30:43.570Z,319.79
2023-05-05T05:31:28.962Z,317.27
2023-05-05T05:32:13.865Z,318.95
2023-05-05T05:32:58.958Z,307.20
2023-05-05T05:33:44.025Z,323.15
2023-05-05T05:34:28.729Z,317.27
2023-05-05T05:35:14.151Z,322.31
2023-05-05T05:35:59.044Z,320.63
2023-05-05T05:36:43.693Z,321.47
2023-05-05T05:37:29.126Z,322.31
2023-05-05T05:38:14.337Z,321.47
2023-05-05T05:38:59.369Z,324.83
2023-05-05T05:39:44.832Z,326.51
2023-05-05T05:40:29.494Z,326.51
2023-05-05T05:41:14.337Z,327.35
2023-05-05T05:41:59.517Z,314.76
2023-05-05T05:42:44.556Z,327.35
2023-05-05T05:43:29.972Z,328.19
2023-05-05T05:44:14.406Z,320.63
2023-05-05T05:44:59.892Z,321.47
2023-05-05T05:45:44.414Z,323.15
2023-05-05T05:46:29.724Z,315.88
2023-05-05T05:47:15.196Z,315.88
2023-05-05T05:48:00.120Z,321.68
2023-05-05T05:48:44.722Z,316.71
2023-05-05T05:49:30.130Z,298.03
2023-05-05T05:50:15.034Z,316.71
2023-05-05T05:50:59.974Z,310.90
2023-05-05T05:51:44.832Z,319.19
2023-05-05T05:52:30.283Z,323.34
2023-05-05T05:53:15.134Z,312.56
2023-05-05T05:54:00.294Z,315.05
2023-05-05T05:54:45.058Z,320.85
2023-05-05T05:55:30.305Z,314.22
2023-05-05T05:56:15.501Z,318.36
2023-05-05T05:57:00.323Z,311.73
2023-05-05T05:57:45.372Z,324.17
2023-05-05T05:58:30.847Z,312.64
2023-05-05T05:59:15.708Z,311.82
2023-05-05T06:00:01.948Z,309.36
2023-05-05T06:00:45.333Z,320.00
2023-05-05T06:01:30.649Z,316.73
2023-05-05T06:02:16.061Z,316.73
2023-05-05T06:03:00.873Z,326.55
2023-05-05T06:03:46.182Z,324.91
2023-05-05T06:04:31.082Z,323.28
2023-05-05T06:05:16.710Z,324.91
2023-05-05T06:06:01.218Z,323.28
2023-05-05T06:06:46.360Z,319.18
2023-05-05T06:07:31.333Z,314.27
2023-05-05T06:08:16.191Z,309.36
2023-05-05T06:09:01.248Z,305.27
2023-05-05T06:09:46.587Z,311.00
2023-05-05T06:10:32.529Z,311.00
2023-05-05T06:11:16.548Z,325.73
2023-05-05T06:12:01.498Z,312.64
2023-05-05T06:12:46.957Z,307.27
2023-05-05T06:13:31.661Z,311.25
2023-05-05T06:14:18.032Z,304.88
2023-05-05T06:15:01.497Z,291.79
2023-05-05T06:15:46.755Z,312.04
2023-05-05T06:16:31.790Z,304.08
2023-05-05T06:17:16.856Z,304.88
2023-05-05T06:18:01.818Z,309.65
2023-05-05T06:18:46.691Z,304.88
2023-05-05T06:19:32.103Z,307.27
2023-05-05T06:20:16.958Z,300.90
2023-05-05T06:21:01.813Z,308.06
2023-05-05T06:21:46.965Z,301.69
2023-05-05T06:22:32.033Z,300.10
2023-05-05T06:23:17.181Z,301.69
2023-05-05T06:24:02.050Z,302.49
2023-05-05T06:24:47.098Z,309.65
2023-05-05T06:25:32.149Z,304.88
2023-05-05T06:26:17.205Z,308.86
2023-05-05T06:27:02.259Z,295.32
2023-05-05T06:27:47.280Z,301.69
2023-05-05T06:28:32.644Z,300.10
2023-05-05T06:29:17.335Z,304.88
2023-05-05T06:30:02.311Z,304.88
2023-05-05T06:30:47.392Z,301.69
2023-05-05T06:31:33.218Z,297.71
2023-05-05T06:32:17.664Z,298.51
2023-05-05T06:33:02.724Z,300.90
2023-05-05T06:33:47.577Z,308.06
2023-05-05T06:34:32.721Z,299.31
2023-05-05T06:35:18.701Z,300.10
2023-05-05T06:36:03.086Z,297.71
2023-05-05T06:36:48.399Z,298.51
2023-05-05T06:37:33.057Z,294.53
2023-05-05T06:38:18.222Z,296.92
2023-05-05T06:39:02.803Z,296.12
2023-05-05T06:39:47.934Z,293.33
2023-05-05T06:40:33.521Z,275.69
2023-05-05T06:41:18.852Z,275.69
2023-05-05T06:42:03.616Z,306.47
2023-05-05T06:42:48.389Z,307.27
2023-05-05T06:43:33.565Z,288.42
2023-05-05T06:44:18.365Z,307.45
2023-05-05T06:45:03.773Z,305.09
2023-05-05T06:45:48.469Z,125.49
2023-05-05T06:46:33.659Z,304.31
2023-05-05T06:47:18.491Z,303.52
2023-05-05T06:48:03.582Z,306.66
2023-05-05T06:48:48.486Z,308.23
2023-05-05T06:49:33.855Z,308.06
2023-05-05T06:50:18.608Z,286.93
2023-05-05T06:51:04.410Z,305.67
2023-05-05T06:51:48.718Z,307.27
2023-05-05T06:52:33.874Z,307.27
2023-05-05T06:53:18.858Z,305.67
2023-05-05T06:54:03.901Z,305.67
2023-05-05T06:54:49.045Z,298.82
2023-05-05T06:55:34.009Z,301.17
2023-05-05T06:56:19.361Z,303.52
2023-05-05T06:57:04.241Z,302.74
2023-05-05T06:57:49.193Z,299.60
2023-05-05T06:58:34.774Z,287.67
2023-05-05T06:59:19.385Z,302.74
2023-05-05T07:00:04.339Z,301.17
2023-05-05T07:00:49.432Z,306.66
2023-05-05T07:01:34.674Z,301.17
2023-05-05T07:02:19.454Z,304.31
2023-05-05T07:03:04.380Z,301.17
2023-05-05T07:03:49.980Z,292.54
2023-05-05T07:04:34.739Z,300.39
2023-05-05T07:05:19.528Z,296.47
2023-05-05T07:06:05.309Z,298.82
2023-05-05T07:06:49.941Z,298.82
2023-05-05T07:07:35.070Z,299.60
2023-05-05T07:08:19.853Z,294.90
2023-05-05T07:09:05.309Z,295.68
2023-05-05T07:09:49.989Z,291.76
2023-05-05T07:10:35.354Z,294.11
2023-05-05T07:11:20.036Z,296.47
2023-05-05T07:12:05.314Z,284.69
2023-05-05T07:12:50.263Z,297.25
2023-05-05T07:13:35.432Z,297.25
2023-05-05T07:14:21.440Z,294.11
2023-05-05T07:15:15.529Z,282.44
2023-05-05T07:15:50.557Z,295.68
2023-05-05T07:16:35.705Z,295.68
2023-05-05T07:17:20.490Z,296.47
2023-05-05T07:18:05.554Z,294.11
2023-05-05T07:18:50.651Z,278.32
2023-05-05T07:19:35.642Z,298.03
2023-05-05T07:20:21.381Z,302.74
2023-05-05T07:21:05.926Z,294.11
2023-05-05T07:21:50.805Z,296.47
2023-05-05T07:22:35.624Z,300.39
2023-05-05T07:23:21.094Z,294.11
2023-05-05T07:24:05.943Z,283.19
2023-05-05T07:24:51.743Z,297.25
2023-05-05T07:25:36.012Z,294.90
2023-05-05T07:26:21.026Z,294.90
2023-05-05T07:27:06.597Z,290.98
2023-05-05T07:27:51.063Z,294.11
2023-05-05T07:28:36.222Z,298.82
2023-05-05T07:29:21.131Z,297.25
2023-05-05T07:30:10.106Z,294.90
2023-05-05T07:30:51.269Z,304.31
2023-05-05T07:31:36.728Z,288.62
2023-05-05T07:32:21.920Z,280.20
2023-05-05T07:33:06.596Z,301.96
2023-05-05T07:33:51.637Z,296.47
2023-05-05T07:34:36.594Z,298.82
2023-05-05T07:35:21.583Z,299.60
2023-05-05T07:36:06.920Z,300.39
2023-05-05T07:36:51.925Z,297.25
2023-05-05T07:37:36.897Z,292.54
2023-05-05T07:38:21.915Z,293.33
2023-05-05T07:39:06.898Z,297.25
2023-05-05T07:39:52.227Z,298.82
2023-05-05T07:40:37.177Z,298.82
2023-05-05T07:41:21.636Z,301.17
2023-05-05T07:42:07.309Z,294.90
2023-05-05T07:42:52.353Z,290.19
2023-05-05T07:43:38.824Z,294.90
2023-05-05T07:44:22.291Z,294.11
2023-05-05T07:45:07.892Z,298.03
2023-05-05T07:45:52.407Z,295.68
2023-05-05T07:46:37.687Z,299.60
2023-05-05T07:47:22.779Z,299.60
2023-05-05T07:48:07.863Z,301.96
2023-05-05T07:48:52.861Z,297.25
2023-05-05T07:49:38.304Z,305.88
2023-05-05T07:50:22.828Z,301.96
2023-05-05T07:51:08.042Z,301.96
2023-05-05T07:51:52.718Z,294.90
2023-05-05T07:52:44.959Z,294.90
2023-05-05T07:53:22.835Z,299.31
2023-05-05T07:54:07.808Z,298.51
2023-05-05T07:54:54.089Z,300.10
2023-05-05T07:55:38.170Z,299.31
2023-05-05T07:56:23.281Z,294.53
2023-05-05T07:57:08.133Z,294.53
2023-05-05T07:57:53.623Z,294.53
2023-05-05T07:58:38.751Z,311.25
2023-05-05T07:59:23.404Z,318.41
2023-05-05T08:00:08.612Z,320.80
2023-05-05T08:00:53.608Z,295.15
2023-05-05T08:01:38.738Z,258.42
2023-05-05T08:02:24.212Z,295.15
2023-05-05T08:03:10.663Z,301.67
2023-05-05T08:03:54.713Z,296.64
2023-05-05T08:04:39.045Z,282.65
2023-05-05T08:05:24.049Z,287.67
2023-05-05T08:06:09.113Z,279.76
2023-05-05T08:06:54.563Z,268.88
2023-05-05T08:07:39.581Z,286.47
2023-05-05T08:08:24.737Z,313.46
2023-05-05T08:09:09.232Z,293.31
2023-05-05T08:09:54.275Z,316.73
2023-05-05T08:10:39.536Z,317.55
2023-05-05T08:11:24.699Z,311.25
2023-05-05T08:12:09.463Z,308.86
2023-05-05T08:12:54.820Z,308.86
2023-05-05T08:13:39.455Z,305.67
2023-05-05T08:14:24.516Z,287.23
2023-05-05T08:15:09.847Z,324.91
2023-05-05T08:15:55.746Z,298.63
2023-05-05T08:16:40.008Z,316.02
2023-05-05T08:17:25.044Z,311.25
2023-05-05T08:18:10.173Z,294.07
2023-05-05T08:18:55.517Z,308.86
2023-05-05T08:19:39.912Z,309.65
2023-05-05T08:20:25.269Z,308.86
2023-05-05T08:21:10.042Z,312.04
2023-05-05T08:21:55.464Z,297.87
2023-05-05T08:22:40.846Z,304.88
2023-05-05T08:23:25.478Z,308.06
2023-05-05T08:24:10.590Z,306.47
2023-05-05T08:24:55.414Z,303.29
2023-05-05T08:25:41.809Z,287.23
2023-05-05T08:26:26.236Z,303.29
2023-05-05T08:27:10.608Z,308.06
2023-05-05T08:27:55.706Z,292.55
2023-05-05T08:28:41.466Z,308.86
2023-05-05T08:29:25.667Z,300.90
2023-05-05T08:30:11.416Z,304.88
2023-05-05T08:30:56.062Z,307.27
2023-05-05T08:31:41.495Z,307.27
2023-05-05T08:32:27.300Z,307.27
2023-05-05T08:33:11.316Z,290.55
2023-05-05T08:33:56.363Z,301.69
2023-05-05T08:34:41.529Z,253.09
2023-05-05T08:35:26.445Z,239.73
2023-05-05T08:36:11.462Z,237.81
2023-05-05T08:36:56.315Z,241.17
2023-05-05T08:37:41.514Z,237.43
2023-05-05T08:38:27.269Z,227.06
2023-05-05T08:39:12.122Z,230.57
2023-05-05T08:39:57.021Z,213.93
2023-05-05T08:40:41.608Z,225.22
2023-05-05T08:41:26.657Z,228.78
2023-05-05T08:42:15.702Z,221.65
2023-05-05T08:42:57.302Z,219.28
2023-05-05T08:43:41.729Z,233.15
2023-05-05T08:44:27.005Z,218.56
2023-05-05T08:45:12.395Z,222.62
2023-05-05T08:45:56.918Z,222.62
2023-05-05T08:46:42.131Z,226.41
2023-05-05T08:47:27.672Z,222.84
2023-05-05T08:48:12.605Z,210.40
2023-05-05T08:48:57.589Z,217.40
2023-05-05T08:49:42.711Z,216.24
2023-05-05T08:50:27.219Z,202.14
2023-05-05T08:51:12.411Z,201.04
2023-05-05T08:51:57.335Z,200.07
2023-05-05T08:52:42.428Z,204.34
2023-05-05T08:53:27.371Z,202.22
2023-05-05T08:54:12.707Z,208.20
2023-05-05T08:54:57.595Z,200.61
2023-05-05T08:55:43.235Z,207.65
2023-05-05T08:56:27.576Z,201.14
2023-05-05T08:57:12.966Z,204.36
2023-05-05T08:57:58.149Z,184.67
2023-05-05T08:58:43.050Z,196.30
2023-05-05T08:59:28.446Z,203.83
2023-05-05T09:00:13.130Z,199.00
2023-05-05T09:00:58.178Z,198.46
2023-05-05T09:01:43.095Z,207.04
2023-05-05T09:02:28.336Z,202.75
2023-05-05T09:03:13.514Z,178.01
2023-05-05T09:03:58.513Z,202.22
2023-05-05T09:04:43.406Z,192.98
2023-05-05T09:05:28.555Z,193.49
2023-05-05T09:06:13.672Z,181.21
2023-05-05T09:06:58.474Z,186.15
2023-05-05T09:07:43.634Z,184.17
2023-05-05T09:08:28.909Z,186.64
2023-05-05T09:09:13.732Z,188.12
2023-05-05T09:09:58.390Z,179.73
2023-05-05T09:10:43.951Z,188.12
2023-05-05T09:11:29.027Z,191.97
2023-05-05T09:12:14.178Z,194.00
2023-05-05T09:12:59.427Z,193.49
2023-05-05T09:13:53.216Z,178.97
2023-05-05T09:14:29.356Z,168.30
2023-05-05T09:15:14.014Z,178.01
2023-05-05T09:15:59.011Z,177.53
2023-05-05T09:16:43.759Z,177.05
2023-05-05T09:17:29.101Z,164.23
2023-05-05T09:18:14.042Z,165.59
2023-05-05T09:18:59.276Z,164.68
2023-05-05T09:19:44.428Z,162.00
2023-05-05T09:20:29.580Z,160.61
2023-05-05T09:21:14.652Z,158.83
2023-05-05T09:21:59.928Z,166.49